| time (UTC) | temp F | wind direction | speed MPH | gust MPH | rain 1hr in | rain 24hr in | rain mn in | humidity % | barometer mb |
| 20260502234549 | 63 | 203 | 2.0 | 6.0 | 0.00 | 0.00 | 0.00 | 42 | 1009.8 |
| 20260502233033 | 63 | 167 | 5.0 | 6.0 | 0.00 | 0.00 | 0.00 | 41 | 1009.8 |
| 20260502231533 | 62 | 224 | 7.0 | 11.0 | 0.00 | 0.00 | 0.00 | 42 | 1010.1 |
| 20260502230030 | 63 | 200 | 7.0 | 14.0 | 0.00 | 0.00 | 0.00 | 42 | 1010.1 |
| 20260502224602 | 65 | 179 | 7.0 | 18.0 | 0.00 | 0.00 | 0.00 | 37 | 1010.3 |
| 20260502223104 | 66 | 186 | 8.0 | 15.0 | 0.00 | 0.00 | 0.00 | 36 | 1010.5 |
| 20260502221524 | 65 | 169 | 2.0 | 18.0 | 0.00 | 0.00 | 0.00 | 37 | 1010.8 |
| 20260502220020 | 59 | 205 | 3.0 | 9.0 | 0.00 | 0.00 | 0.00 | 41 | 1010.9 |
| 20260502214517 | 57 | 61 | 1.0 | 5.0 | 0.00 | 0.00 | 0.00 | 42 | 1010.9 |
| 20260502213015 | 58 | 53 | 0.0 | 6.0 | 0.00 | 0.00 | 0.00 | 41 | 1011.3 |
| 20260502211513 | 59 | 83 | 2.0 | 5.0 | 0.00 | 0.00 | 0.00 | 40 | 1011.5 |
| 20260502210011 | 58 | 56 | 4.0 | 8.0 | 0.00 | 0.00 | 0.00 | 40 | 1011.9 |
| 20260502204541 | 59 | 58 | 3.0 | 6.0 | 0.00 | 0.00 | 0.00 | 38 | 1012.1 |
| 20260502203103 | 59 | 356 | 1.0 | 6.0 | 0.00 | 0.00 | 0.00 | 38 | 1012.4 |
| 20260502201506 | 58 | 60 | 6.0 | 9.0 | 0.00 | 0.00 | 0.00 | 38 | 1012.7 |
| 20260502200003 | 59 | 76 | 2.0 | 6.0 | 0.00 | 0.00 | 0.00 | 36 | 1013.0 |
| 20260502194556 | 56 | 70 | 3.0 | 7.0 | 0.00 | 0.00 | 0.00 | 41 | 1013.7 |
| 20260502193054 | 57 | 13 | 1.0 | 6.0 | 0.00 | 0.00 | 0.00 | 39 | 1013.8 |
| 20260502191559 | 56 | 64 | 2.0 | 7.0 | 0.00 | 0.00 | 0.00 | 41 | 1014.1 |
| 20260502190049 | 55 | 75 | 2.0 | 6.0 | 0.00 | 0.00 | 0.00 | 41 | 1014.4 |
| 20260502184547 | 56 | 70 | 2.0 | 6.0 | 0.00 | 0.00 | 0.00 | 42 | 1014.7 |
| 20260502184545 | 56 | 74 | 2.0 | 6.0 | 0.00 | 0.00 | 0.00 | 42 | 1014.7 |
| 20260502183013 | 55 | 116 | 2.0 | 5.0 | 0.00 | 0.00 | 0.00 | 44 | 1015.0 |
| 20260502181510 | 53 | 63 | 1.0 | 5.0 | 0.00 | 0.00 | 0.00 | 48 | 1015.3 |
| 20260502163102 | 49 | 87 | 2.0 | 6.0 | 0.00 | 0.00 | 0.00 | 54 | 1017.3 |
| 20260502161558 | 49 | 100 | 2.0 | 6.0 | 0.00 | 0.00 | 0.00 | 56 | 1017.5 |
| 20260502151527 | 46 | 83 | 1.0 | 6.0 | 0.00 | 0.00 | 0.00 | 63 | 1018.4 |
| 20260502130108 | 37 | 105 | 1.0 | 3.0 | 0.00 | 0.00 | 0.00 | 77 | 1019.5 |
| 20260502123117 | 38 | 146 | 0.0 | 2.0 | 0.00 | 0.00 | 0.00 | 75 | 1019.5 |
| 20260502121609 | 38 | 188 | 0.0 | 2.0 | 0.00 | 0.00 | 0.00 | 74 | 1019.6 |
| 20260502114502 | 39 | 311 | 0.0 | 0.0 | 0.00 | 0.00 | 0.00 | 72 | 1019.8 |
| 20260502113133 | 35 | 311 | 0.0 | 1.0 | 0.00 | 0.00 | 0.00 | 74 | 1019.7 |
| 20260502111559 | 34 | 311 | 0.0 | 1.0 | 0.00 | 0.00 | 0.00 | 76 | 1019.6 |
| 20260502110028 | 33 | 311 | 0.0 | 1.0 | 0.00 | 0.00 | 0.00 | 75 | 1019.7 |
| 20260502104532 | 33 | 311 | 0.0 | 2.0 | 0.00 | 0.00 | 0.00 | 77 | 1019.7 |
| 20260502103057 | 32 | 318 | 0.0 | 1.0 | 0.00 | 0.00 | 0.00 | 78 | 1019.6 |
| 20260502101604 | 32 | 318 | 1.0 | 1.0 | 0.00 | 0.00 | 0.00 | 76 | 1019.6 |
| 20260502071532 | 34 | 319 | 1.0 | 2.0 | 0.00 | 0.00 | 0.00 | 72 | 1020.2 |
| 20260502070001 | 34 | 307 | 0.0 | 2.0 | 0.00 | 0.00 | 0.00 | 72 | 1020.2 |
| 20260502064559 | 35 | 307 | 1.0 | 2.0 | 0.00 | 0.00 | 0.00 | 71 | 1020.3 |
| 20260502063055 | 35 | 307 | 1.0 | 2.0 | 0.00 | 0.00 | 0.00 | 70 | 1020.3 |
| 20260502061554 | 35 | 307 | 0.0 | 2.0 | 0.00 | 0.00 | 0.00 | 70 | 1020.5 |
| 20260502060054 | 36 | 314 | 1.0 | 4.0 | 0.00 | 0.00 | 0.00 | 69 | 1020.4 |
| 20260502054550 | 36 | 314 | 2.0 | 4.0 | 0.00 | 0.00 | 0.00 | 69 | 1020.4 |
| 20260502053040 | 36 | 308 | 2.0 | 4.0 | 0.00 | 0.00 | 0.00 | 69 | 1020.5 |
| 20260502051537 | 36 | 291 | 1.0 | 0.0 | 0.00 | 0.00 | 0.00 | 70 | 1020.4 |
| 20260502050039 | 36 | 268 | 1.0 | 2.0 | 0.00 | 0.00 | 0.00 | 71 | 1020.5 |
| 20260502044530 | 36 | 267 | 0.0 | 1.0 | 0.00 | 0.00 | 0.00 | 69 | 1020.6 |
| 20260502043032 | 37 | 266 | 0.0 | 2.0 | 0.00 | 0.00 | 0.00 | 69 | 1020.6 |
| 20260502041527 | 37 | 139 | 0.0 | 1.0 | 0.00 | 0.00 | 0.00 | 68 | 1020.6 |
| 20260502040027 | 37 | 139 | 0.0 | 1.0 | 0.00 | 0.00 | 0.00 | 68 | 1020.6 |
| 20260502034527 | 38 | 139 | 0.0 | 0.0 | 0.00 | 0.00 | 0.00 | 68 | 1020.7 |
| 20260502033125 | 38 | 139 | 0.0 | 0.0 | 0.00 | 0.00 | 0.00 | 69 | 1020.7 |
| 20260502031555 | 39 | 139 | 0.0 | 1.0 | 0.00 | 0.00 | 0.00 | 72 | 1020.7 |
| 20260502030054 | 40 | 124 | 0.0 | 1.0 | 0.00 | 0.00 | 0.00 | 62 | 1020.7 |
| 20260502024550 | 40 | 317 | 1.0 | 2.0 | 0.00 | 0.00 | 0.00 | 61 | 1020.8 |
| 20260502023049 | 40 | 358 | 0.0 | 1.0 | 0.00 | 0.00 | 0.00 | 61 | 1020.6 |
| 20260502021548 | 41 | 359 | 1.0 | 1.0 | 0.00 | 0.00 | 0.00 | 61 | 1020.5 |
| 20260502020048 | 41 | 360 | 0.0 | 1.0 | 0.00 | 0.00 | 0.00 | 59 | 1020.4 |
| 20260502014544 | 42 | 360 | 0.0 | 1.0 | 0.00 | 0.00 | 0.00 | 58 | 1020.4 |
| 20260502013044 | 42 | 360 | 0.0 | 1.0 | 0.00 | 0.00 | 0.00 | 57 | 1020.4 |
| 20260502011543 | 43 | 360 | 0.0 | 1.0 | 0.00 | 0.00 | 0.00 | 57 | 1020.1 |
| 20260502010042 | 43 | 360 | 0.0 | 1.0 | 0.00 | 0.00 | 0.00 | 55 | 1020.2 |
| 20260502004540 | 43 | 360 | 0.0 | 2.0 | 0.00 | 0.00 | 0.00 | 54 | 1020.3 |
| 20260502003039 | 43 | 20 | 1.0 | 4.0 | 0.00 | 0.00 | 0.00 | 53 | 1020.2 |
| 20260502001547 | 44 | 299 | 1.0 | 6.0 | 0.00 | 0.00 | 0.00 | 52 | 1020.2 |
| 20260502000037 | 44 | 54 | 1.0 | 4.0 | 0.00 | 0.00 | 0.00 | 51 | 1020.2 |